sensor_id;sensor_type;location;lat;lon;timestamp;pressure;altitude;pressure_sealevel;temperature;humidity
56334;BME280;42240;53.626;55.886;2023-03-20T00:01:26;78904.63;;;-145.10;44.68
56334;BME280;42240;53.626;55.886;2023-03-20T00:03:00;78797.78;;;-145.10;45.12
56334;BME280;42240;53.626;55.886;2023-03-20T00:04:33;78815.59;;;-145.10;43.77
56334;BME280;42240;53.626;55.886;2023-03-20T00:06:17;78815.59;;;-145.10;44.28
56334;BME280;42240;53.626;55.886;2023-03-20T00:07:51;78805.72;;;-145.10;45.05
56334;BME280;42240;53.626;55.886;2023-03-20T00:09:24;78799.78;;;-145.10;45.12
56334;BME280;42240;53.626;55.886;2023-03-20T00:10:58;78791.88;;;-145.10;44.94
56334;BME280;42240;53.626;55.886;2023-03-20T00:12:31;78813.63;;;-145.10;43.61
56334;BME280;42240;53.626;55.886;2023-03-20T00:14:09;78815.59;;;-145.10;43.44
56334;BME280;42240;53.626;55.886;2023-03-20T00:15:43;78805.72;;;-145.10;43.68
56334;BME280;42240;53.626;55.886;2023-03-20T00:17:19;78801.75;;;-145.10;43.64
56334;BME280;42240;53.626;55.886;2023-03-20T00:18:52;78799.78;;;-145.10;43.23
56334;BME280;42240;53.626;55.886;2023-03-20T00:20:27;78791.88;;;-145.10;43.86
56334;BME280;42240;53.626;55.886;2023-03-20T00:22:03;78795.81;;;-145.10;43.83
56334;BME280;42240;53.626;55.886;2023-03-20T00:23:36;78803.72;;;-145.10;43.34
56334;BME280;42240;53.626;55.886;2023-03-20T00:25:16;78785.94;;;-145.10;43.76
56334;BME280;42240;53.626;55.886;2023-03-20T00:26:50;78787.91;;;-145.10;43.68
56334;BME280;42240;53.626;55.886;2023-03-20T00:28:41;78787.91;;;-145.10;43.37
56334;BME280;42240;53.626;55.886;2023-03-20T00:31:56;78780.00;;;-145.10;43.70
56334;BME280;42240;53.626;55.886;2023-03-20T00:33:30;78787.91;;;-145.10;44.06
56334;BME280;42240;53.626;55.886;2023-03-20T00:35:25;78819.56;;;-145.10;44.06
56334;BME280;42240;53.626;55.886;2023-03-20T00:36:59;78778.00;;;-145.10;44.23
56334;BME280;42240;53.626;55.886;2023-03-20T00:38:34;78841.31;;;-145.10;44.64
56334;BME280;42240;53.626;55.886;2023-03-20T00:40:08;78772.06;;;-145.10;44.50
56334;BME280;42240;53.626;55.886;2023-03-20T00:41:54;78776.03;;;-145.10;44.62
56334;BME280;42240;53.626;55.886;2023-03-20T00:43:28;78772.06;;;-145.10;44.76
56334;BME280;42240;53.626;55.886;2023-03-20T00:45:01;78789.88;;;-145.10;44.29
56334;BME280;42240;53.626;55.886;2023-03-20T00:46:37;78770.09;;;-145.10;44.36
56334;BME280;42240;53.626;55.886;2023-03-20T00:48:14;78780.00;;;-145.10;44.87
56334;BME280;42240;53.626;55.886;2023-03-20T00:49:50;78780.00;;;-145.10;45.13
56334;BME280;42240;53.626;55.886;2023-03-20T00:51:25;78783.94;;;-145.10;45.12
56334;BME280;42240;53.626;55.886;2023-03-20T00:52:58;78807.69;;;-145.10;44.27
56334;BME280;42240;53.626;55.886;2023-03-20T00:54:31;78789.88;;;-145.10;45.38
56334;BME280;42240;53.626;55.886;2023-03-20T00:56:05;78795.81;;;-145.10;44.71
56334;BME280;42240;53.626;55.886;2023-03-20T00:57:42;78787.91;;;-145.10;44.92
56334;BME280;42240;53.626;55.886;2023-03-20T00:59:18;78801.75;;;-145.10;45.22
56334;BME280;42240;53.626;55.886;2023-03-20T01:00:52;78797.78;;;-145.10;44.84
56334;BME280;42240;53.626;55.886;2023-03-20T01:02:27;78807.69;;;-145.10;44.98
56334;BME280;42240;53.626;55.886;2023-03-20T01:04:01;78795.81;;;-145.10;45.19
56334;BME280;42240;53.626;55.886;2023-03-20T01:05:34;78780.00;;;-145.10;45.06
56334;BME280;42240;53.626;55.886;2023-03-20T01:07:13;78787.91;;;-145.10;45.00
56334;BME280;42240;53.626;55.886;2023-03-20T01:08:46;78799.78;;;-145.10;45.17
56334;BME280;42240;53.626;55.886;2023-03-20T01:10:20;78799.78;;;-145.10;45.56
56334;BME280;42240;53.626;55.886;2023-03-20T01:11:55;78801.75;;;-145.10;45.02
56334;BME280;42240;53.626;55.886;2023-03-20T01:13:29;78797.78;;;-145.10;44.88
56334;BME280;42240;53.626;55.886;2023-03-20T01:15:15;78849.25;;;-145.10;44.77
56334;BME280;42240;53.626;55.886;2023-03-20T01:16:48;78795.81;;;-145.10;44.85
56334;BME280;42240;53.626;55.886;2023-03-20T01:18:23;78787.91;;;-145.10;44.66
56334;BME280;42240;53.626;55.886;2023-03-20T01:19:57;78799.78;;;-145.10;44.53
56334;BME280;42240;53.626;55.886;2023-03-20T01:21:30;78797.78;;;-145.10;44.52
56334;BME280;42240;53.626;55.886;2023-03-20T01:23:03;78795.81;;;-145.10;44.03
56334;BME280;42240;53.626;55.886;2023-03-20T01:24:36;78791.88;;;-145.10;44.34
56334;BME280;42240;53.626;55.886;2023-03-20T01:26:22;78783.94;;;-145.10;44.26
56334;BME280;42240;53.626;55.886;2023-03-20T01:27:56;78803.72;;;-145.10;44.06
56334;BME280;42240;53.626;55.886;2023-03-20T01:29:30;78803.72;;;-145.10;44.24
56334;BME280;42240;53.626;55.886;2023-03-20T01:31:04;78811.66;;;-145.10;44.69
56334;BME280;42240;53.626;55.886;2023-03-20T01:32:38;78813.63;;;-145.10;44.18
56334;BME280;42240;53.626;55.886;2023-03-20T01:34:12;78811.66;;;-145.10;44.63
56334;BME280;42240;53.626;55.886;2023-03-20T01:35:46;78803.72;;;-145.10;44.57
56334;BME280;42240;53.626;55.886;2023-03-20T01:37:25;78783.94;;;-145.10;44.77
56334;BME280;42240;53.626;55.886;2023-03-20T01:39:03;78839.34;;;-145.10;44.66
56334;BME280;42240;53.626;55.886;2023-03-20T01:40:46;78797.78;;;-145.10;44.57
56334;BME280;42240;53.626;55.886;2023-03-20T01:42:21;78797.78;;;-145.10;44.47
56334;BME280;42240;53.626;55.886;2023-03-20T01:43:54;78789.88;;;-145.10;44.63
56334;BME280;42240;53.626;55.886;2023-03-20T01:45:34;78780.00;;;-145.10;44.28
56334;BME280;42240;53.626;55.886;2023-03-20T01:47:17;78793.84;;;-145.10;44.64
56334;BME280;42240;53.626;55.886;2023-03-20T01:50:31;78799.78;;;-145.10;45.01
56334;BME280;42240;53.626;55.886;2023-03-20T01:52:13;78809.66;;;-145.10;44.98
56334;BME280;42240;53.626;55.886;2023-03-20T01:53:54;78789.88;;;-145.10;45.44
56334;BME280;42240;53.626;55.886;2023-03-20T01:55:29;78787.91;;;-145.10;45.75
56334;BME280;42240;53.626;55.886;2023-03-20T01:57:12;78770.09;;;-145.10;46.10
56334;BME280;42240;53.626;55.886;2023-03-20T01:59:02;78770.09;;;-145.10;45.71
56334;BME280;42240;53.626;55.886;2023-03-20T02:00:37;78795.81;;;-145.10;45.50
56334;BME280;42240;53.626;55.886;2023-03-20T02:02:22;78837.38;;;-145.10;45.61
56334;BME280;42240;53.626;55.886;2023-03-20T02:03:57;78781.97;;;-145.10;46.33
56334;BME280;42240;53.626;55.886;2023-03-20T02:05:45;78799.78;;;-145.10;45.71
56334;BME280;42240;53.626;55.886;2023-03-20T02:07:20;78801.75;;;-145.10;45.27
56334;BME280;42240;53.626;55.886;2023-03-20T02:09:07;78809.66;;;-145.10;45.62
56334;BME280;42240;53.626;55.886;2023-03-20T02:10:45;78807.69;;;-145.10;45.68
56334;BME280;42240;53.626;55.886;2023-03-20T02:12:26;78801.75;;;-145.10;45.50
56334;BME280;42240;53.626;55.886;2023-03-20T02:14:00;78819.56;;;-145.10;45.47
56334;BME280;42240;53.626;55.886;2023-03-20T02:16:06;78819.56;;;-145.10;45.01
56334;BME280;42240;53.626;55.886;2023-03-20T02:18:02;78821.53;;;-145.10;44.65
56334;BME280;42240;53.626;55.886;2023-03-20T02:19:52;78813.63;;;-145.10;45.15
56334;BME280;42240;53.626;55.886;2023-03-20T02:26:06;78772.06;;;-145.10;46.15
56334;BME280;42240;53.626;55.886;2023-03-20T02:30:04;78795.81;;;-145.10;45.38
56334;BME280;42240;53.626;55.886;2023-03-20T02:33:47;78803.72;;;-145.10;45.08
56334;BME280;42240;53.626;55.886;2023-03-20T02:47:06;78776.03;;;-145.10;46.03
56334;BME280;42240;53.626;55.886;2023-03-20T02:52:20;78781.97;;;-145.10;45.18
56334;BME280;42240;53.626;55.886;2023-03-20T02:56:29;78783.94;;;-145.10;44.78
56334;BME280;42240;53.626;55.886;2023-03-20T03:01:30;78748.34;;;-145.10;45.09
56334;BME280;42240;53.626;55.886;2023-03-20T03:03:36;78736.47;;;-145.10;45.60
56334;BME280;42240;53.626;55.886;2023-03-20T03:05:20;78853.19;;;-145.10;45.70
56334;BME280;42240;53.626;55.886;2023-03-20T03:06:56;78736.47;;;-145.10;45.58
56334;BME280;42240;53.626;55.886;2023-03-20T03:08:36;78728.56;;;-145.10;46.17
56334;BME280;42240;53.626;55.886;2023-03-20T03:10:15;78730.53;;;-145.10;45.91
56334;BME280;42240;53.626;55.886;2023-03-20T03:12:16;78736.47;;;-145.10;46.05
56334;BME280;42240;53.626;55.886;2023-03-20T03:13:53;78803.72;;;-145.10;46.27
56334;BME280;42240;53.626;55.886;2023-03-20T03:15:31;78732.50;;;-145.10;46.44
56334;BME280;42240;53.626;55.886;2023-03-20T03:17:07;78724.59;;;-145.10;46.87
56334;BME280;42240;53.626;55.886;2023-03-20T03:18:43;78728.56;;;-145.10;46.07
56334;BME280;42240;53.626;55.886;2023-03-20T03:20:24;78720.63;;;-145.10;46.60
56334;BME280;42240;53.626;55.886;2023-03-20T03:22:00;78730.53;;;-145.10;46.04
56334;BME280;42240;53.626;55.886;2023-03-20T03:23:41;78720.63;;;-145.10;46.15
56334;BME280;42240;53.626;55.886;2023-03-20T03:25:20;78746.34;;;-145.10;44.73
56334;BME280;42240;53.626;55.886;2023-03-20T03:26:58;78722.63;;;-145.10;44.94
56334;BME280;42240;53.626;55.886;2023-03-20T03:30:26;78712.72;;;-145.10;44.19
56334;BME280;42240;53.626;55.886;2023-03-20T03:32:02;78750.31;;;-145.10;43.06
56334;BME280;42240;53.626;55.886;2023-03-20T03:33:43;78734.50;;;-145.10;43.87
56334;BME280;42240;53.626;55.886;2023-03-20T03:35:19;78720.63;;;-145.10;43.62
56334;BME280;42240;53.626;55.886;2023-03-20T03:37:04;78700.84;;;-145.10;43.88
56334;BME280;42240;53.626;55.886;2023-03-20T03:38:50;78696.91;;;-145.10;43.79
56334;BME280;42240;53.626;55.886;2023-03-20T03:40:38;78700.84;;;-145.10;43.61
56334;BME280;42240;53.626;55.886;2023-03-20T03:44:06;78702.84;;;-145.10;44.10
56334;BME280;42240;53.626;55.886;2023-03-20T03:45:55;78778.00;;;-145.10;43.74
56334;BME280;42240;53.626;55.886;2023-03-20T03:47:38;78673.16;;;-145.10;44.24
56334;BME280;42240;53.626;55.886;2023-03-20T03:49:23;78669.19;;;-145.10;43.86
56334;BME280;42240;53.626;55.886;2023-03-20T03:51:02;78653.38;;;-145.10;44.03
56334;BME280;42240;53.626;55.886;2023-03-20T03:52:43;78649.41;;;-145.10;44.34
56334;BME280;42240;53.626;55.886;2023-03-20T03:54:24;78637.53;;;-145.10;43.67
56334;BME280;42240;53.626;55.886;2023-03-20T03:56:20;78687.00;;;-145.10;43.49
56334;BME280;42240;53.626;55.886;2023-03-20T03:57:59;78637.53;;;-145.10;43.33
56334;BME280;42240;53.626;55.886;2023-03-20T03:59:41;78617.75;;;-145.10;43.70
56334;BME280;42240;53.626;55.886;2023-03-20T04:01:17;78609.84;;;-145.10;43.81
56334;BME280;42240;53.626;55.886;2023-03-20T04:02:56;78613.81;;;-145.10;43.47
56334;BME280;42240;53.626;55.886;2023-03-20T04:04:31;78590.06;;;-145.10;43.11
56334;BME280;42240;53.626;55.886;2023-03-20T04:06:08;78592.03;;;-145.10;42.53
56334;BME280;42240;53.626;55.886;2023-03-20T04:07:45;78594.03;;;-145.10;42.86
56334;BME280;42240;53.626;55.886;2023-03-20T04:09:18;78601.94;;;-145.10;42.42
56334;BME280;42240;53.626;55.886;2023-03-20T04:10:51;78594.03;;;-145.10;42.51
56334;BME280;42240;53.626;55.886;2023-03-20T04:12:34;78574.22;;;-145.10;43.02
56334;BME280;42240;53.626;55.886;2023-03-20T04:14:13;78582.16;;;-145.10;42.58
56334;BME280;42240;53.626;55.886;2023-03-20T04:15:46;78588.09;;;-145.10;42.74
56334;BME280;42240;53.626;55.886;2023-03-20T04:17:19;78605.88;;;-145.10;42.68
56334;BME280;42240;53.626;55.886;2023-03-20T04:18:52;78597.97;;;-145.10;42.45
56334;BME280;42240;53.626;55.886;2023-03-20T04:20:29;78588.09;;;-145.10;42.65
56334;BME280;42240;53.626;55.886;2023-03-20T04:22:02;78590.06;;;-145.10;42.83
56334;BME280;42240;53.626;55.886;2023-03-20T04:23:35;78592.03;;;-145.10;42.82
56334;BME280;42240;53.626;55.886;2023-03-20T04:25:21;78566.31;;;-145.10;42.49
56334;BME280;42240;53.626;55.886;2023-03-20T04:26:58;78578.19;;;-145.10;42.97
56334;BME280;42240;53.626;55.886;2023-03-20T04:28:45;78574.22;;;-145.10;42.82
56334;BME280;42240;53.626;55.886;2023-03-20T04:30:44;78584.13;;;-145.10;42.94
56334;BME280;42240;53.626;55.886;2023-03-20T04:32:38;78566.31;;;-145.10;42.75
56334;BME280;42240;53.626;55.886;2023-03-20T04:34:26;78558.41;;;-145.10;42.47
56334;BME280;42240;53.626;55.886;2023-03-20T04:36:15;78554.44;;;-145.10;42.64
56334;BME280;42240;53.626;55.886;2023-03-20T04:37:48;78594.03;;;-145.10;42.80
56334;BME280;42240;53.626;55.886;2023-03-20T04:39:31;78514.88;;;-145.10;42.36
56334;BME280;42240;53.626;55.886;2023-03-20T04:41:06;78530.72;;;-145.10;42.61
56334;BME280;42240;53.626;55.886;2023-03-20T04:42:43;78503.00;;;-145.10;42.66
56334;BME280;42240;53.626;55.886;2023-03-20T04:44:16;78514.88;;;-145.10;41.97
56334;BME280;42240;53.626;55.886;2023-03-20T04:45:51;78491.16;;;-145.10;42.50
56334;BME280;42240;53.626;55.886;2023-03-20T04:47:25;78508.94;;;-145.10;41.89
56334;BME280;42240;53.626;55.886;2023-03-20T04:48:58;78491.16;;;-145.10;41.99
56334;BME280;42240;53.626;55.886;2023-03-20T04:50:34;78449.59;;;-145.10;42.80
56334;BME280;42240;53.626;55.886;2023-03-20T04:52:08;78473.34;;;-145.10;41.37
56334;BME280;42240;53.626;55.886;2023-03-20T04:53:47;78467.41;;;-145.10;41.60
56334;BME280;42240;53.626;55.886;2023-03-20T04:55:20;78408.06;;;-145.10;41.56
56334;BME280;42240;53.626;55.886;2023-03-20T04:56:55;78419.94;;;-145.10;41.62
56334;BME280;42240;53.626;55.886;2023-03-20T04:58:29;78283.44;;;-145.10;40.94
56334;BME280;42240;53.626;55.886;2023-03-20T05:00:03;78208.25;;;-145.10;40.85
56334;BME280;42240;53.626;55.886;2023-03-20T05:01:37;78160.78;;;-145.10;40.34
56334;BME280;42240;53.626;55.886;2023-03-20T05:03:10;78115.28;;;-145.10;40.28
56334;BME280;42240;53.626;55.886;2023-03-20T05:04:44;78087.59;;;-145.10;40.06
56334;BME280;42240;53.626;55.886;2023-03-20T05:06:19;78053.97;;;-145.10;39.32
56334;BME280;42240;53.626;55.886;2023-03-20T05:07:52;78063.84;;;-145.10;38.37
56334;BME280;42240;53.626;55.886;2023-03-20T05:09:37;77883.84;;;-145.10;37.17
56334;BME280;42240;53.626;55.886;2023-03-20T05:11:12;77828.47;;;-145.10;36.65
56334;BME280;42240;53.626;55.886;2023-03-20T05:13:04;77725.59;;;-145.10;35.90
56334;BME280;42240;53.626;55.886;2023-03-20T05:15:06;77786.91;;;-145.10;35.32
56334;BME280;42240;53.626;55.886;2023-03-20T05:16:58;77577.25;;;-145.10;35.02
56334;BME280;42240;53.626;55.886;2023-03-20T05:18:45;77523.84;;;-145.10;34.10
56334;BME280;42240;53.626;55.886;2023-03-20T05:20:39;77355.75;;;-145.10;33.75
56334;BME280;42240;53.626;55.886;2023-03-20T05:22:48;77284.53;;;-145.10;32.54
56334;BME280;42240;53.626;55.886;2023-03-20T05:24:42;77343.88;;;-145.10;31.57
56334;BME280;42240;53.626;55.886;2023-03-20T05:26:43;77270.69;;;-145.10;31.85
56334;BME280;42240;53.626;55.886;2023-03-20T05:28:29;77237.06;;;-145.10;30.86
56334;BME280;42240;53.626;55.886;2023-03-20T05:30:20;77057.09;;;-145.10;30.98
56334;BME280;42240;53.626;55.886;2023-03-20T05:32:10;77106.56;;;-145.10;31.04
56334;BME280;42240;53.626;55.886;2023-03-20T05:34:10;77074.91;;;-145.10;30.89
56334;BME280;42240;53.626;55.886;2023-03-20T05:35:49;76956.25;;;-145.10;30.30
56334;BME280;42240;53.626;55.886;2023-03-20T05:37:38;77015.56;;;-145.10;29.77
56334;BME280;42240;53.626;55.886;2023-03-20T05:39:18;76889.00;;;-145.10;30.89
56334;BME280;42240;53.626;55.886;2023-03-20T05:41:09;76974.06;;;-145.10;29.22
56334;BME280;42240;53.626;55.886;2023-03-20T05:43:06;76849.47;;;-145.10;29.35
56334;BME280;42240;53.626;55.886;2023-03-20T05:45:06;76821.78;;;-145.10;28.71
56334;BME280;42240;53.626;55.886;2023-03-20T05:46:57;76926.59;;;-145.10;28.29
56334;BME280;42240;53.626;55.886;2023-03-20T05:48:45;77080.84;;;-145.10;29.08
56334;BME280;42240;53.626;55.886;2023-03-20T05:50:37;77110.50;;;-145.10;29.16
56334;BME280;42240;53.626;55.886;2023-03-20T05:52:40;77278.59;;;-145.10;29.89
56334;BME280;42240;53.626;55.886;2023-03-20T05:54:25;77413.09;;;-145.10;30.96
56334;BME280;42240;53.626;55.886;2023-03-20T05:56:07;77478.38;;;-145.10;31.88
56334;BME280;42240;53.626;55.886;2023-03-20T05:57:58;77517.91;;;-145.10;32.09
56334;BME280;42240;53.626;55.886;2023-03-20T05:59:50;77743.41;;;-145.10;32.51
56334;BME280;42240;53.626;55.886;2023-03-20T06:01:44;77703.84;;;-145.10;33.64
56334;BME280;42240;53.626;55.886;2023-03-20T06:03:43;77695.94;;;-145.10;33.01
56334;BME280;42240;53.626;55.886;2023-03-20T06:05:21;77729.56;;;-145.10;33.16
56334;BME280;42240;53.626;55.886;2023-03-20T06:06:56;77735.50;;;-145.10;33.55
56334;BME280;42240;53.626;55.886;2023-03-20T06:08:29;77721.66;;;-145.10;33.88
56334;BME280;42240;53.626;55.886;2023-03-20T06:10:04;77737.47;;;-145.10;33.61
56334;BME280;42240;53.626;55.886;2023-03-20T06:11:37;77834.38;;;-145.10;33.79
56334;BME280;42240;53.626;55.886;2023-03-20T06:13:11;77771.09;;;-145.10;34.35
56334;BME280;42240;53.626;55.886;2023-03-20T06:14:45;77729.56;;;-145.10;34.15
56334;BME280;42240;53.626;55.886;2023-03-20T06:16:19;77731.53;;;-145.10;33.81
56334;BME280;42240;53.626;55.886;2023-03-20T06:17:55;77670.22;;;-145.10;33.94
56334;BME280;42240;53.626;55.886;2023-03-20T06:19:28;77557.47;;;-145.10;33.48
56334;BME280;42240;53.626;55.886;2023-03-20T06:21:01;77498.16;;;-145.10;32.97
56334;BME280;42240;53.626;55.886;2023-03-20T06:22:34;77557.47;;;-145.10;32.71
56334;BME280;42240;53.626;55.886;2023-03-20T06:24:07;77500.13;;;-145.10;33.10
56334;BME280;42240;53.626;55.886;2023-03-20T06:25:41;77430.91;;;-145.10;31.01
56334;BME280;42240;53.626;55.886;2023-03-20T06:27:15;77264.75;;;-145.10;30.69
56334;BME280;42240;53.626;55.886;2023-03-20T06:28:51;77296.41;;;-145.10;29.21
56334;BME280;42240;53.626;55.886;2023-03-20T06:30:24;77239.06;;;-145.10;29.92
56334;BME280;42240;53.626;55.886;2023-03-20T06:31:58;77161.94;;;-145.10;29.76
56334;BME280;42240;53.626;55.886;2023-03-20T06:33:33;77205.44;;;-145.10;28.73
56334;BME280;42240;53.626;55.886;2023-03-20T06:35:08;77189.59;;;-145.10;29.08
56334;BME280;42240;53.626;55.886;2023-03-20T06:36:43;77161.94;;;-145.10;29.04
56334;BME280;42240;53.626;55.886;2023-03-20T06:38:24;77237.06;;;-145.10;28.74
56334;BME280;42240;53.626;55.886;2023-03-20T06:39:58;77248.94;;;-145.10;28.58
56334;BME280;42240;53.626;55.886;2023-03-20T06:41:31;77292.44;;;-145.10;28.64
56334;BME280;42240;53.626;55.886;2023-03-20T06:43:10;77304.31;;;-145.10;29.42
56334;BME280;42240;53.626;55.886;2023-03-20T06:44:52;77262.78;;;-145.10;29.97
56334;BME280;42240;53.626;55.886;2023-03-20T06:46:52;77312.22;;;-145.10;29.78
56334;BME280;42240;53.626;55.886;2023-03-20T06:48:25;77320.13;;;-145.10;29.96
56334;BME280;42240;53.626;55.886;2023-03-20T06:49:58;77347.81;;;-145.10;29.70
56334;BME280;42240;53.626;55.886;2023-03-20T06:51:31;77359.69;;;-145.10;30.15
56334;BME280;42240;53.626;55.886;2023-03-20T06:53:09;77351.78;;;-145.10;29.81
56334;BME280;42240;53.626;55.886;2023-03-20T06:54:47;77335.97;;;-145.10;29.90
56334;BME280;42240;53.626;55.886;2023-03-20T06:56:22;77326.06;;;-145.10;30.27
56334;BME280;42240;53.626;55.886;2023-03-20T06:57:56;77343.88;;;-145.10;29.63
56334;BME280;42240;53.626;55.886;2023-03-20T06:59:30;77320.13;;;-145.10;29.46
56334;BME280;42240;53.626;55.886;2023-03-20T07:01:08;77345.84;;;-145.10;30.51
56334;BME280;42240;53.626;55.886;2023-03-20T07:02:43;77387.38;;;-145.10;30.07
56334;BME280;42240;53.626;55.886;2023-03-20T07:04:19;77399.25;;;-145.10;30.46
56334;BME280;42240;53.626;55.886;2023-03-20T07:05:56;77355.75;;;-145.10;30.53
56334;BME280;42240;53.626;55.886;2023-03-20T07:07:29;77383.44;;;-145.10;30.60
56334;BME280;42240;53.626;55.886;2023-03-20T07:09:02;77345.84;;;-145.10;30.97
56334;BME280;42240;53.626;55.886;2023-03-20T07:10:37;77341.91;;;-145.10;31.07
56334;BME280;42240;53.626;55.886;2023-03-20T07:12:12;77411.13;;;-145.10;30.29
56334;BME280;42240;53.626;55.886;2023-03-20T07:13:50;77415.06;;;-145.10;30.25
56334;BME280;42240;53.626;55.886;2023-03-20T07:15:33;77438.81;;;-145.10;30.86
56334;BME280;42240;53.626;55.886;2023-03-20T07:17:09;77494.19;;;-145.10;30.45
56334;BME280;42240;53.626;55.886;2023-03-20T07:18:42;77488.25;;;-145.10;31.22
56334;BME280;42240;53.626;55.886;2023-03-20T07:20:16;77525.84;;;-145.10;31.44
56334;BME280;42240;53.626;55.886;2023-03-20T07:21:55;77523.84;;;-145.10;32.31
56334;BME280;42240;53.626;55.886;2023-03-20T07:23:31;77577.25;;;-145.10;31.94
56334;BME280;42240;53.626;55.886;2023-03-20T07:25:08;77523.84;;;-145.10;32.36
56334;BME280;42240;53.626;55.886;2023-03-20T07:26:42;77531.75;;;-145.10;31.91
56334;BME280;42240;53.626;55.886;2023-03-20T07:28:15;77557.47;;;-145.10;32.54
56334;BME280;42240;53.626;55.886;2023-03-20T07:29:55;77547.59;;;-145.10;32.61
56334;BME280;42240;53.626;55.886;2023-03-20T07:31:28;77565.38;;;-145.10;32.15
56334;BME280;42240;53.626;55.886;2023-03-20T07:33:15;77527.81;;;-145.10;33.01
56334;BME280;42240;53.626;55.886;2023-03-20T07:34:49;77624.72;;;-145.10;32.24
56334;BME280;42240;53.626;55.886;2023-03-20T07:36:24;77533.75;;;-145.10;32.72
56334;BME280;42240;53.626;55.886;2023-03-20T07:38:13;77563.41;;;-145.10;32.63
56334;BME280;42240;53.626;55.886;2023-03-20T07:39:55;77565.38;;;-145.10;32.16
56334;BME280;42240;53.626;55.886;2023-03-20T07:41:34;77553.53;;;-145.10;32.80
56334;BME280;42240;53.626;55.886;2023-03-20T07:43:11;77557.47;;;-145.10;32.68
56334;BME280;42240;53.626;55.886;2023-03-20T07:45:13;77604.94;;;-145.10;33.13
56334;BME280;42240;53.626;55.886;2023-03-20T07:46:49;77604.94;;;-145.10;33.51
56334;BME280;42240;53.626;55.886;2023-03-20T07:48:22;77593.09;;;-145.10;33.10
56334;BME280;42240;53.626;55.886;2023-03-20T07:49:55;77589.13;;;-145.10;33.52
56334;BME280;42240;53.626;55.886;2023-03-20T07:51:28;77575.28;;;-145.10;34.07
56334;BME280;42240;53.626;55.886;2023-03-20T07:53:04;77684.06;;;-145.10;34.00
56334;BME280;42240;53.626;55.886;2023-03-20T07:54:37;77699.88;;;-145.10;33.79
56334;BME280;42240;53.626;55.886;2023-03-20T07:56:10;77672.19;;;-145.10;34.26
56334;BME280;42240;53.626;55.886;2023-03-20T07:57:43;77680.09;;;-145.10;34.16
56334;BME280;42240;53.626;55.886;2023-03-20T07:59:17;77715.72;;;-145.10;34.44
56334;BME280;42240;53.626;55.886;2023-03-20T08:00:50;77763.19;;;-145.10;34.29
56334;BME280;42240;53.626;55.886;2023-03-20T08:02:23;77741.44;;;-145.10;34.89
56334;BME280;42240;53.626;55.886;2023-03-20T08:03:58;77731.53;;;-145.10;34.93
56334;BME280;42240;53.626;55.886;2023-03-20T08:05:32;77711.75;;;-145.10;34.92
56334;BME280;42240;53.626;55.886;2023-03-20T08:07:07;77723.63;;;-145.10;34.57
56334;BME280;42240;53.626;55.886;2023-03-20T08:08:40;77717.69;;;-145.10;34.44
56334;BME280;42240;53.626;55.886;2023-03-20T08:10:16;77690.00;;;-145.10;35.42
56334;BME280;42240;53.626;55.886;2023-03-20T08:11:50;77743.41;;;-145.10;34.43
56334;BME280;42240;53.626;55.886;2023-03-20T08:13:23;77733.50;;;-145.10;34.95
56334;BME280;42240;53.626;55.886;2023-03-20T08:15:10;77735.50;;;-145.10;35.38
56334;BME280;42240;53.626;55.886;2023-03-20T08:16:44;77739.44;;;-145.10;34.86
56334;BME280;42240;53.626;55.886;2023-03-20T08:18:18;77757.25;;;-145.10;34.74
56334;BME280;42240;53.626;55.886;2023-03-20T08:19:54;77735.50;;;-145.10;35.43
56334;BME280;42240;53.626;55.886;2023-03-20T08:21:37;77739.44;;;-145.10;35.04
56334;BME280;42240;53.626;55.886;2023-03-20T08:23:10;77717.69;;;-145.10;35.54
56334;BME280;42240;53.626;55.886;2023-03-20T08:24:44;77688.03;;;-145.10;35.61
56334;BME280;42240;53.626;55.886;2023-03-20T08:26:27;77684.06;;;-145.10;35.24
56334;BME280;42240;53.626;55.886;2023-03-20T08:28:00;77676.16;;;-145.10;35.03
56334;BME280;42240;53.626;55.886;2023-03-20T08:29:33;77650.44;;;-145.10;35.39
56334;BME280;42240;53.626;55.886;2023-03-20T08:31:08;77654.41;;;-145.10;35.62
56334;BME280;42240;53.626;55.886;2023-03-20T08:32:41;77656.38;;;-145.10;35.36
56334;BME280;42240;53.626;55.886;2023-03-20T08:34:14;77640.56;;;-145.10;36.16
56334;BME280;42240;53.626;55.886;2023-03-20T08:35:55;77650.44;;;-145.10;35.43
56334;BME280;42240;53.626;55.886;2023-03-20T08:37:29;77656.38;;;-145.10;35.48
56334;BME280;42240;53.626;55.886;2023-03-20T08:39:02;77618.78;;;-145.10;35.39
56334;BME280;42240;53.626;55.886;2023-03-20T08:40:35;77620.78;;;-145.10;34.82
56334;BME280;42240;53.626;55.886;2023-03-20T08:42:08;77636.59;;;-145.10;34.82
56334;BME280;42240;53.626;55.886;2023-03-20T08:43:42;77597.03;;;-145.10;35.61
56334;BME280;42240;53.626;55.886;2023-03-20T08:45:16;77620.78;;;-145.10;34.26
56334;BME280;42240;53.626;55.886;2023-03-20T08:46:49;77561.44;;;-145.10;34.97
56334;BME280;42240;53.626;55.886;2023-03-20T08:48:22;77601.00;;;-145.10;34.68
56334;BME280;42240;53.626;55.886;2023-03-20T08:49:57;77604.94;;;-145.10;34.95
56334;BME280;42240;53.626;55.886;2023-03-20T08:51:30;77571.31;;;-145.10;34.49
56334;BME280;42240;53.626;55.886;2023-03-20T08:53:04;77601.00;;;-145.10;34.65
56334;BME280;42240;53.626;55.886;2023-03-20T08:54:38;77569.34;;;-145.10;34.45
56334;BME280;42240;53.626;55.886;2023-03-20T08:56:11;77545.63;;;-145.10;34.88
56334;BME280;42240;53.626;55.886;2023-03-20T08:57:45;77531.75;;;-145.10;34.49
56334;BME280;42240;53.626;55.886;2023-03-20T08:59:18;77567.38;;;-145.10;34.92
56334;BME280;42240;53.626;55.886;2023-03-20T09:00:53;77547.59;;;-145.10;35.26